Time;durP1;ratioP1;P1;durP2;ratioP2;P2;SDS_P1;SDS_P2;PMS_P1;PMS_P2;Temp;Humidity;BMP_temperature;BMP_pressure;BME280_temperature;BME280_humidity;BME280_pressure;Samples;Min_cycle;Max_cycle;Signal;HPM_P1;HPM_P2
2021/08/13 00:01:20;;;;;;;12.73;8.63;;;;;;;16.52;94.17;101587.09;5048264;28;19999;-70
2021/08/13 00:03:45;;;;;;;12.40;9.87;;;;;;;16.46;94.24;101583.28;5048765;28;20037;-71
2021/08/13 00:06:11;;;;;;;17.23;11.80;;;;;;;16.49;94.66;101582.91;5048669;28;20051;-71
2021/08/13 00:08:36;;;;;;;14.80;9.73;;;;;;;16.51;95.13;101585.44;5048947;28;20063;-71
2021/08/13 00:11:02;;;;;;;14.23;10.03;;;;;;;16.52;95.08;101582.53;5048833;28;20132;-71
2021/08/13 00:13:28;;;;;;;14.43;9.40;;;;;;;16.53;95.06;101589.63;5048557;28;20067;-70
2021/08/13 00:15:53;;;;;;;11.50;8.53;;;;;;;16.52;95.05;101576.31;5048398;28;20072;-71
2021/08/13 00:18:18;;;;;;;15.03;10.53;;;;;;;16.53;95.48;101569.88;5048454;28;20402;-70
2021/08/13 00:20:44;;;;;;;11.87;9.50;;;;;;;16.53;95.42;101577.97;5048984;28;20408;-71
2021/08/13 00:23:09;;;;;;;15.23;9.03;;;;;;;16.54;95.41;101574.28;5047806;28;20101;-71
2021/08/13 00:25:34;;;;;;;14.67;10.00;;;;;;;16.56;95.77;101574.94;5047542;28;20051;-70
2021/08/13 00:28:00;;;;;;;15.37;9.77;;;;;;;16.52;95.37;101570.91;5048626;28;20033;-71
2021/08/13 00:30:25;;;;;;;12.37;8.33;;;;;;;16.48;95.88;101567.72;5047407;28;20091;-71
2021/08/13 00:32:50;;;;;;;14.00;10.03;;;;;;;16.45;95.54;101571.63;5047527;28;20742;-70
2021/08/13 00:35:17;;;;;;;12.63;9.70;;;;;;;16.36;95.94;101564.63;5048390;28;20040;-71
2021/08/13 00:37:43;;;;;;;13.05;10.05;;;;;;;16.34;96.35;101564.00;5047451;28;20378;-70
2021/08/13 00:40:09;;;;;;;15.00;9.80;;;;;;;16.29;96.38;101569.06;5047495;28;20029;-70
2021/08/13 00:42:36;;;;;;;16.98;11.65;;;;;;;16.34;96.79;101569.41;5047432;28;20027;-71
2021/08/13 00:45:04;;;;;;;15.50;10.80;;;;;;;16.30;97.42;101573.47;5048116;28;20037;-70
2021/08/13 00:47:30;;;;;;;18.17;11.25;;;;;;;16.32;97.65;101576.81;5047697;28;20051;-70
2021/08/13 00:50:04;;;;;;;14.32;10.65;;;;;;;16.34;97.41;101579.31;5031127;28;20025;-70
2021/08/13 00:52:38;;;;;;;13.60;10.88;;;;;;;16.36;97.19;101583.50;5047417;28;20029;-70
2021/08/13 00:55:06;;;;;;;17.38;10.38;;;;;;;16.33;97.09;101586.56;5047264;28;20033;-70
2021/08/13 00:57:53;;;;;;;15.93;11.35;;;;;;;16.31;97.31;101591.28;5047084;28;20390;-70
2021/08/13 01:00:40;;;;;;;12.60;10.80;;;;;;;16.36;97.19;101594.28;5047679;28;20055;-70
2021/08/13 01:03:07;;;;;;;12.50;9.60;;;;;;;16.36;97.48;101588.88;5047168;28;20051;-71
2021/08/13 01:05:35;;;;;;;14.98;10.73;;;;;;;16.32;97.32;101586.72;5047121;28;20048;-70
2021/08/13 01:08:01;;;;;;;15.65;9.80;;;;;;;16.29;97.50;101587.94;5046859;28;20452;-70
2021/08/13 01:10:31;;;;;;;14.75;11.30;;;;;;;16.30;97.39;101588.78;5047015;28;20136;-70
2021/08/13 01:13:02;;;;;;;14.10;11.48;;;;;;;16.33;97.80;101580.34;5047642;28;20093;-70
2021/08/13 01:15:32;;;;;;;12.07;10.25;;;;;;;16.24;97.33;101576.84;5046773;28;20037;-70
2021/08/13 01:18:11;;;;;;;17.20;10.90;;;;;;;16.27;97.57;101567.56;5046303;28;20044;-70
2021/08/13 01:21:01;;;;;;;17.30;11.13;;;;;;;16.29;97.56;101577.16;5046732;28;20462;-70
2021/08/13 01:23:34;;;;;;;14.23;10.50;;;;;;;16.28;97.42;101574.66;5046791;28;20033;-70
2021/08/13 01:26:04;;;;;;;13.90;10.43;;;;;;;16.27;97.44;101573.78;5046598;28;20144;-71
2021/08/13 01:28:36;;;;;;;15.48;9.68;;;;;;;16.28;97.33;101569.28;5046784;28;20028;-70
2021/08/13 01:31:08;;;;;;;12.80;10.63;;;;;;;16.29;97.51;101566.38;5046490;28;20029;-71
2021/08/13 01:33:36;;;;;;;13.45;10.55;;;;;;;16.26;97.56;101564.06;5046288;28;20082;-71
2021/08/13 01:36:04;;;;;;;15.88;11.50;;;;;;;16.30;97.68;101570.75;5046123;28;20500;-70
2021/08/13 01:38:34;;;;;;;17.58;11.10;;;;;;;16.25;97.49;101576.69;5047174;28;20056;-70
2021/08/13 01:41:06;;;;;;;13.57;11.63;;;;;;;16.26;97.79;101566.75;5047582;28;20024;-70
2021/08/13 01:43:38;;;;;;;15.57;10.10;;;;;;;16.27;97.65;101568.41;5047047;28;20029;-70
2021/08/13 01:46:04;;;;;;;16.52;11.02;;;;;;;16.28;97.57;101566.56;5046667;28;20064;-70
2021/08/13 01:48:33;;;;;;;12.30;10.30;;;;;;;16.27;97.88;101570.28;5047003;28;20476;-70
2021/08/13 01:50:59;;;;;;;12.20;10.70;;;;;;;16.28;97.93;101575.50;5030780;28;20043;-70
2021/08/13 01:53:25;;;;;;;15.93;10.90;;;;;;;16.28;97.48;101583.56;5047068;28;20032;-70
2021/08/13 01:55:56;;;;;;;14.70;10.73;;;;;;;16.26;97.48;101574.81;5030894;28;20090;-70
2021/08/13 01:58:26;;;;;;;13.85;11.43;;;;;;;16.28;97.63;101574.66;5047354;28;20032;-70
2021/08/13 02:00:53;;;;;;;15.00;11.43;;;;;;;16.29;98.05;101576.31;5030990;28;20017;-70
2021/08/13 02:03:19;;;;;;;15.20;12.07;;;;;;;16.28;98.04;101578.19;5051182;28;20036;-70
2021/08/13 02:05:47;;;;;;;16.23;12.27;;;;;;;16.31;98.10;101577.81;5050769;28;20473;-70
2021/08/13 02:08:13;;;;;;;15.52;11.82;;;;;;;16.33;98.42;101575.78;5051204;28;20047;-70
2021/08/13 02:10:44;;;;;;;15.80;12.23;;;;;;;16.33;98.21;101572.25;5050868;28;20041;-70
2021/08/13 02:13:12;;;;;;;16.60;11.90;;;;;;;16.35;98.16;101573.75;5034213;28;20033;-70
2021/08/13 02:15:42;;;;;;;18.65;11.77;;;;;;;16.37;98.66;101568.19;5050647;28;20021;-70
2021/08/13 02:18:13;;;;;;;15.77;12.65;;;;;;;16.39;98.49;101572.38;5034301;28;20528;-70
2021/08/13 02:20:43;;;;;;;16.67;12.57;;;;;;;16.39;98.65;101572.38;5050687;28;20037;-70
2021/08/13 02:23:10;;;;;;;15.35;11.65;;;;;;;16.41;98.78;101559.56;5034263;28;20048;-70
2021/08/13 02:25:36;;;;;;;15.95;11.45;;;;;;;16.42;98.79;101563.91;5050524;28;20386;-70
2021/08/13 02:28:06;;;;;;;17.30;13.00;;;;;;;16.44;99.07;101564.59;5050252;28;20033;-70
2021/08/13 02:30:34;;;;;;;14.77;12.25;;;;;;;16.41;98.38;101564.94;5050620;28;20064;-70
2021/08/13 02:32:59;;;;;;;15.98;11.90;;;;;;;16.43;98.85;101556.66;5050314;28;20060;-70
2021/08/13 02:35:27;;;;;;;17.20;12.40;;;;;;;16.45;98.88;101554.63;5033911;28;20351;-70
2021/08/13 02:38:05;;;;;;;16.25;13.35;;;;;;;16.45;98.91;101558.16;5050027;28;20047;-70
2021/08/13 02:40:36;;;;;;;19.73;11.82;;;;;;;16.40;98.65;101563.25;5051434;28;20051;-70
2021/08/13 02:43:04;;;;;;;20.00;12.18;;;;;;;16.44;98.84;101553.81;5033423;28;20882;-70
2021/08/13 02:45:38;;;;;;;14.85;12.65;;;;;;;16.46;99.21;101546.38;5050132;28;20112;-70
2021/08/13 02:48:07;;;;;;;17.98;13.48;;;;;;;16.47;99.10;101558.00;5033233;28;20068;-70
2021/08/13 02:50:40;;;;;;;14.88;12.07;;;;;;;16.50;99.33;101562.19;5050212;28;20064;-70
2021/08/13 02:53:09;;;;;;;17.85;11.82;;;;;;;16.49;99.54;101565.91;5032923;28;20095;-70
2021/08/13 02:55:40;;;;;;;17.92;11.90;;;;;;;16.51;99.13;101575.47;5049930;28;20025;-70
2021/08/13 02:58:10;;;;;;;17.88;12.52;;;;;;;16.50;99.21;101575.66;5049596;28;20044;-70
2021/08/13 03:00:38;;;;;;;18.65;13.88;;;;;;;16.48;99.49;101569.59;5033563;28;20171;-70
2021/08/13 03:03:05;;;;;;;16.67;13.40;;;;;;;16.49;99.85;101571.28;5049832;28;20017;-70
2021/08/13 03:05:33;;;;;;;16.08;13.48;;;;;;;16.48;99.69;101570.44;5049668;28;20029;-70
2021/08/13 03:08:03;;;;;;;17.10;12.95;;;;;;;16.50;99.52;101565.69;5049721;28;20033;-70
2021/08/13 03:10:29;;;;;;;16.97;13.03;;;;;;;16.52;100.00;101569.06;5032945;28;20424;-70
2021/08/13 03:12:56;;;;;;;20.38;14.77;;;;;;;16.51;99.92;101570.09;5049282;28;20087;-70
2021/08/13 03:15:25;;;;;;;29.75;15.88;;;;;;;16.49;99.82;101565.91;5049381;28;20040;-70
2021/08/13 03:17:50;;;;;;;22.45;15.65;;;;;;;16.56;100.00;101570.38;5050302;28;20434;-70
2021/08/13 03:20:17;;;;;;;22.40;16.58;;;;;;;16.61;99.81;101562.56;5049518;28;20446;-70
2021/08/13 03:22:56;;;;;;;22.20;16.52;;;;;;;16.65;100.00;101566.59;5049545;28;20180;-70
2021/08/13 03:25:22;;;;;;;20.47;14.60;;;;;;;16.65;100.00;101571.16;5049284;28;20529;-70
2021/08/13 03:27:49;;;;;;;22.30;16.05;;;;;;;16.53;99.71;101567.19;5049280;28;20075;-70
2021/08/13 03:30:14;;;;;;;;;;;;;;;16.55;100.00;101554.38;5049565;28;20442;-70
2021/08/13 03:32:41;;;;;;;;;;;;;;;16.59;100.00;101558.38;5049750;28;19923;-70
2021/08/13 03:35:08;;;;;;;21.92;16.85;;;;;;;16.54;99.99;101547.31;5049200;28;19913;-70
2021/08/13 03:37:35;;;;;;;22.63;17.38;;;;;;;16.52;99.98;101538.56;5048734;28;20643;-70
2021/08/13 03:40:03;;;;;;;21.67;15.30;;;;;;;16.54;99.76;101550.00;5049297;28;20031;-70
2021/08/13 03:42:29;;;;;;;23.13;16.55;;;;;;;16.61;100.00;101553.66;5048929;28;20029;-70
2021/08/13 03:44:54;;;;;;;26.83;15.90;;;;;;;16.65;99.84;101560.38;5032181;28;20025;-70
2021/08/13 03:47:20;;;;;;;23.90;15.93;;;;;;;16.68;99.66;101560.81;5048703;28;20329;-70
2021/08/13 03:49:45;;;;;;;23.67;15.97;;;;;;;16.70;99.35;101560.66;5049016;28;20033;-70
2021/08/13 03:52:11;;;;;;;21.40;16.27;;;;;;;16.69;99.55;101561.66;5032122;28;20037;-70
2021/08/13 03:54:37;;;;;;;20.67;15.93;;;;;;;16.69;99.49;101556.25;5048633;28;20469;-70
2021/08/13 03:57:02;;;;;;;26.13;16.93;;;;;;;16.68;99.45;101557.28;5048461;28;20048;-70
2021/08/13 03:59:28;;;;;;;22.15;16.50;;;;;;;16.65;99.60;101565.75;5049032;28;20036;-70
2021/08/13 04:01:54;;;;;;;22.15;15.52;;;;;;;16.60;99.21;101558.22;5048834;28;20021;-70
2021/08/13 04:04:20;;;;;;;20.43;16.47;;;;;;;16.63;99.61;101565.09;5048462;28;20044;-70
2021/08/13 04:06:45;;;;;;;20.13;15.60;;;;;;;16.64;99.30;101566.75;5048539;28;20033;-70
2021/08/13 04:09:11;;;;;;;19.97;16.53;;;;;;;16.59;98.99;101571.88;5031896;28;20051;-70
2021/08/13 04:11:36;;;;;;;22.73;17.00;;;;;;;16.58;99.29;101562.94;5048500;28;20037;-70
2021/08/13 04:14:04;;;;;;;24.83;16.93;;;;;;;16.58;99.42;101568.34;5049231;28;20036;-70
2021/08/13 04:16:29;;;;;;;20.15;14.80;;;;;;;16.59;99.50;101578.09;5049343;28;20051;-70
2021/08/13 04:18:56;;;;;;;21.95;14.88;;;;;;;16.64;99.34;101588.31;5031904;28;20715;-70
2021/08/13 04:21:23;;;;;;;21.10;14.98;;;;;;;16.60;99.39;101595.09;5032122;28;20021;-70
2021/08/13 04:23:49;;;;;;;19.33;14.57;;;;;;;16.56;99.53;101593.81;5047369;28;20544;-70
2021/08/13 04:26:14;;;;;;;19.60;16.40;;;;;;;16.49;99.63;101593.69;5047959;28;20036;-70
2021/08/13 04:28:40;;;;;;;21.40;14.53;;;;;;;16.48;99.88;101600.09;5048393;28;20036;-70
2021/08/13 04:31:06;;;;;;;22.93;15.63;;;;;;;16.46;99.91;101594.88;5048065;28;20029;-70
2021/08/13 04:33:34;;;;;;;22.20;15.45;;;;;;;16.43;100.00;101584.44;5048165;28;20068;-70
2021/08/13 04:36:04;;;;;;;19.48;14.98;;;;;;;16.41;99.85;101582.94;5047474;28;20116;-70
2021/08/13 04:38:30;;;;;;;22.83;15.65;;;;;;;16.36;100.00;101590.75;5048176;28;20522;-70
2021/08/13 04:40:55;;;;;;;22.20;16.53;;;;;;;16.33;100.00;101599.19;5047902;28;20124;-70
2021/08/13 04:43:22;;;;;;;20.58;16.55;;;;;;;16.28;100.00;101591.66;5048025;28;20033;-70
2021/08/13 04:45:48;;;;;;;20.85;16.27;;;;;;;16.24;99.82;101588.47;5047165;28;20351;-70
2021/08/13 04:48:13;;;;;;;19.13;14.13;;;;;;;16.21;99.87;101591.53;5048036;28;20047;-70
2021/08/13 04:50:38;;;;;;;20.97;15.93;;;;;;;16.19;99.67;101590.03;5047583;28;20189;-70
2021/08/13 04:53:07;;;;;;;23.45;17.35;;;;;;;16.11;99.42;101588.25;5047845;28;20040;-70
2021/08/13 04:55:32;;;;;;;18.90;14.70;;;;;;;16.12;99.43;101581.00;5047788;28;20159;-70
2021/08/13 04:57:59;;;;;;;19.42;14.68;;;;;;;16.12;99.22;101581.81;5030950;28;20465;-70
2021/08/13 05:00:24;;;;;;;16.23;13.77;;;;;;;16.12;99.57;101572.91;5046900;28;20024;-70
2021/08/13 05:02:52;;;;;;;22.45;17.27;;;;;;;16.07;99.05;101569.94;5046006;28;20363;-70
2021/08/13 05:05:18;;;;;;;21.33;15.13;;;;;;;16.14;99.67;101579.78;5045773;28;20048;-70
2021/08/13 05:07:43;;;;;;;17.65;13.98;;;;;;;16.28;99.77;101572.78;5045648;28;20029;-71
2021/08/13 05:10:12;;;;;;;16.73;13.43;;;;;;;16.52;99.54;101579.84;5046395;28;20055;-71
2021/08/13 05:12:38;;;;;;;23.88;15.63;;;;;;;16.91;99.99;101586.13;5029099;28;20032;-71
2021/08/13 05:15:05;;;;;;;20.33;14.90;;;;;;;17.48;100.00;101593.56;5029635;28;20619;-71
2021/08/13 05:17:31;;;;;;;23.38;15.90;;;;;;;18.01;94.35;101596.94;5046621;28;20029;-71
2021/08/13 05:19:57;;;;;;;18.17;13.50;;;;;;;18.66;90.22;101595.09;5030913;28;20033;-71
2021/08/13 05:22:22;;;;;;;18.83;13.97;;;;;;;18.95;86.01;101585.13;5047481;28;20037;-71
2021/08/13 05:24:48;;;;;;;19.25;14.05;;;;;;;19.13;85.08;101580.06;5047823;28;20029;-71
2021/08/13 05:27:13;;;;;;;17.43;12.23;;;;;;;19.52;83.56;101575.03;5047146;28;20171;-71
2021/08/13 05:29:38;;;;;;;17.30;13.17;;;;;;;19.99;80.55;101586.91;5047155;28;20094;-71
2021/08/13 05:32:04;;;;;;;16.43;12.83;;;;;;;20.38;79.64;101585.31;5030482;28;20064;-71
2021/08/13 05:34:30;;;;;;;17.98;11.98;;;;;;;20.71;77.79;101582.63;5046924;28;20028;-72
2021/08/13 05:36:55;;;;;;;15.15;11.30;;;;;;;21.26;76.47;101587.78;5046077;28;20102;-71
2021/08/13 05:39:22;;;;;;;;;;;;;;;22.11;74.04;101591.19;5045847;28;20147;-72
2021/08/13 05:41:48;;;;;;;14.95;10.50;;;;;;;22.42;71.49;101591.44;5028678;28;20310;-71
2021/08/13 05:44:14;;;;;;;12.13;9.23;;;;;;;23.20;68.85;101595.56;5045507;28;20037;-72
2021/08/13 05:46:39;;;;;;;13.88;10.73;;;;;;;23.21;68.30;101586.34;5044778;28;20086;-72
2021/08/13 05:49:05;;;;;;;13.60;10.50;;;;;;;23.32;68.57;101585.59;5045699;28;20505;-72
2021/08/13 05:51:30;;;;;;;16.13;10.77;;;;;;;23.46;66.40;101591.72;5029065;28;20128;-71
2021/08/13 05:53:56;;;;;;;14.10;11.10;;;;;;;23.55;66.34;101591.19;5047840;28;20052;-72
2021/08/13 05:56:21;;;;;;;13.80;10.27;;;;;;;24.24;63.52;101593.63;5046449;28;20047;-72
2021/08/13 05:58:47;;;;;;;12.00;9.73;;;;;;;24.75;62.82;101588.66;5047211;28;20033;-72
2021/08/13 06:01:12;;;;;;;15.95;11.43;;;;;;;24.73;61.26;101586.16;5046793;28;20033;-72
2021/08/13 06:03:38;;;;;;;12.90;10.15;;;;;;;24.63;61.81;101584.03;5046954;28;20513;-72
2021/08/13 06:06:04;;;;;;;;;;;;;;;24.50;60.15;101577.94;5046889;28;20390;-71
2021/08/13 06:08:29;;;;;;;13.93;9.98;;;;;;;24.25;61.65;101584.38;5047064;28;19913;-72
2021/08/13 06:10:55;;;;;;;14.00;11.23;;;;;;;24.38;59.72;101575.16;5029618;28;20029;-72
2021/08/13 06:13:21;;;;;;;14.80;9.40;;;;;;;24.61;60.04;101574.41;5045616;28;20128;-71
2021/08/13 06:15:49;;;;;;;13.05;10.73;;;;;;;25.23;57.86;101577.47;5045512;28;20473;-72
2021/08/13 06:18:15;;;;;;;16.50;10.35;;;;;;;24.98;59.99;101576.88;5045426;28;20033;-72
2021/08/13 06:20:41;;;;;;;13.60;10.90;;;;;;;24.81;59.32;101569.41;5045448;28;20660;-73
2021/08/13 06:23:11;;;;;;;14.43;10.32;;;;;;;24.69;59.33;101567.75;5045314;28;20017;-72
2021/08/13 06:25:37;;;;;;;11.67;9.30;;;;;;;24.36;61.07;101564.47;5044614;28;20425;-72
2021/08/13 06:28:02;;;;;;;16.13;10.00;;;;;;;24.66;58.21;101577.25;5045256;28;20287;-72
2021/08/13 06:30:28;;;;;;;16.38;11.35;;;;;;;24.99;58.66;101578.56;5045963;28;20036;-72
2021/08/13 06:32:55;;;;;;;9.83;8.60;;;;;;;25.10;57.89;101577.72;5029364;28;20037;-72
2021/08/13 06:35:23;;;;;;;13.60;9.82;;;;;;;24.60;58.47;101576.28;5045651;28;20633;-72
2021/08/13 06:37:50;;;;;;;12.38;9.85;;;;;;;23.93;59.88;101573.75;5045623;28;20051;-71
2021/08/13 06:40:17;;;;;;;14.75;9.48;;;;;;;24.15;61.02;101575.94;5046387;28;20052;-72
2021/08/13 06:42:43;;;;;;;13.32;10.05;;;;;;;24.32;58.89;101573.38;5046088;28;20032;-72
2021/08/13 06:45:14;;;;;;;12.80;7.88;;;;;;;24.68;59.15;101564.19;5046101;28;20033;-72
2021/08/13 06:47:40;;;;;;;13.10;8.55;;;;;;;24.52;59.25;101573.91;5047911;28;20041;-72
2021/08/13 06:50:06;;;;;;;13.93;10.55;;;;;;;23.87;61.39;101571.94;5050101;28;20400;-72
2021/08/13 06:52:34;;;;;;;12.93;8.45;;;;;;;24.28;61.41;101580.34;5033525;28;20470;-72
2021/08/13 06:55:00;;;;;;;16.55;10.60;;;;;;;24.17;60.55;101573.81;5048473;28;20032;-71
2021/08/13 06:57:25;;;;;;;12.43;9.17;;;;;;;24.40;60.16;101570.31;5049808;28;20037;-72
2021/08/13 06:59:51;;;;;;;13.52;10.48;;;;;;;24.52;59.26;101562.16;5033606;28;20283;-71
2021/08/13 07:02:17;;;;;;;12.35;8.60;;;;;;;24.27;60.72;101581.44;5048345;28;20512;-72
2021/08/13 07:04:42;;;;;;;13.82;9.90;;;;;;;24.32;59.67;101574.19;5049486;28;20036;-72
2021/08/13 07:07:08;;;;;;;12.77;10.87;;;;;;;24.59;58.82;101574.63;5049431;28;20378;-71
2021/08/13 07:09:35;;;;;;;16.05;11.23;;;;;;;24.76;59.76;101569.28;5049969;28;20029;-72
2021/08/13 07:12:00;;;;;;;17.17;11.53;;;;;;;24.30;61.27;101562.69;5049456;28;20040;-72
2021/08/13 07:14:26;;;;;;;13.40;11.20;;;;;;;24.38;60.73;101562.34;5050557;28;20386;-72
2021/08/13 07:16:52;;;;;;;;;;;;;;;25.30;58.05;101568.34;5049385;28;20477;-72
2021/08/13 07:19:17;;;;;;;13.20;10.50;;;;;;;24.56;60.41;101564.19;5049519;28;19912;-71
2021/08/13 07:21:44;;;;;;;12.95;10.10;;;;;;;25.03;59.30;101560.63;5049226;28;20036;-71
2021/08/13 07:24:09;;;;;;;17.40;10.67;;;;;;;25.03;58.45;101564.19;5048631;28;20562;-72
2021/08/13 07:26:35;;;;;;;12.57;10.82;;;;;;;24.41;61.08;101574.69;5047731;28;20129;-72
2021/08/13 07:29:01;;;;;;;13.30;10.43;;;;;;;24.33;60.27;101569.59;5048024;28;20119;-72
2021/08/13 07:31:26;;;;;;;16.30;10.27;;;;;;;24.38;60.34;101578.72;5047870;28;20384;-72
2021/08/13 07:33:54;;;;;;;16.50;10.90;;;;;;;23.30;63.64;101572.22;5048032;28;20044;-72
2021/08/13 07:36:24;;;;;;;13.07;9.97;;;;;;;23.64;61.97;101569.06;5047943;28;20425;-72
2021/08/13 07:38:52;;;;;;;10.93;8.93;;;;;;;24.00;61.96;101570.94;5047883;28;20812;-72
2021/08/13 07:41:18;;;;;;;12.95;9.27;;;;;;;24.60;60.67;101575.47;5047903;28;20166;-72
2021/08/13 07:43:43;;;;;;;11.43;9.07;;;;;;;24.52;60.08;101573.09;5029953;28;20489;-73
2021/08/13 07:46:10;;;;;;;14.17;10.40;;;;;;;24.34;59.84;101577.53;5047136;28;20378;-72
2021/08/13 07:48:36;;;;;;;13.55;9.98;;;;;;;23.71;61.72;101572.53;5047806;28;20089;-72
2021/08/13 07:51:02;;;;;;;11.40;9.77;;;;;;;23.74;62.43;101577.56;5046143;28;20021;-72
2021/08/13 07:53:28;;;;;;;13.88;8.68;;;;;;;24.08;61.70;101561.56;5045264;28;20041;-72
2021/08/13 07:55:53;;;;;;;12.05;9.57;;;;;;;23.98;60.58;101556.69;5044131;28;20025;-71
2021/08/13 07:58:18;;;;;;;14.05;9.60;;;;;;;24.09;60.84;101568.69;5043598;28;20037;-72
2021/08/13 08:00:44;;;;;;;12.85;8.95;;;;;;;23.87;61.84;101571.09;5045635;28;20013;-72
2021/08/13 08:03:10;;;;;;;11.53;9.20;;;;;;;24.20;61.52;101574.16;5047824;28;20044;-72
2021/08/13 08:05:35;;;;;;;11.18;8.95;;;;;;;23.98;61.10;101568.41;5048752;28;20029;-72
2021/08/13 08:08:00;;;;;;;11.37;9.10;;;;;;;24.23;59.84;101560.06;5049230;28;20388;-72
2021/08/13 08:10:26;;;;;;;10.63;8.37;;;;;;;24.35;60.25;101568.28;5049200;28;20024;-72
2021/08/13 08:12:51;;;;;;;15.30;9.35;;;;;;;24.29;60.02;101569.22;5048061;28;20056;-72
2021/08/13 08:15:17;;;;;;;11.97;9.20;;;;;;;23.73;60.86;101556.78;5049084;28;20036;-71
2021/08/13 08:17:42;;;;;;;10.90;7.78;;;;;;;24.66;59.98;101569.06;5048263;28;20503;-72
2021/08/13 08:20:08;;;;;;;11.37;8.40;;;;;;;24.66;59.03;101566.34;5048718;28;20100;-72
2021/08/13 08:22:34;;;;;;;14.60;7.55;;;;;;;25.01;58.78;101570.97;5049007;28;20414;-72
2021/08/13 08:24:59;;;;;;;11.95;8.45;;;;;;;25.25;57.12;101567.16;5048978;28;20057;-72
2021/08/13 08:27:25;;;;;;;10.27;8.27;;;;;;;24.64;58.60;101569.28;5048603;28;20045;-72
2021/08/13 08:29:50;;;;;;;10.15;8.73;;;;;;;24.89;58.49;101570.13;5049189;28;20477;-72
2021/08/13 08:32:15;;;;;;;14.30;8.93;;;;;;;24.63;59.24;101569.50;5049037;28;20564;-72
2021/08/13 08:34:41;;;;;;;12.67;8.00;;;;;;;25.08;58.55;101563.47;5047918;28;20712;-72
2021/08/13 08:37:10;;;;;;;10.55;8.57;;;;;;;24.53;59.51;101569.28;5048393;28;20036;-72
2021/08/13 08:39:36;;;;;;;14.35;9.27;;;;;;;24.98;58.39;101574.16;5048796;28;20542;-72
2021/08/13 08:42:02;;;;;;;;;;;;;;;25.00;58.27;101564.66;5048296;28;20045;-72
2021/08/13 08:44:27;;;;;;;10.98;8.18;;;;;;;24.94;57.77;101562.88;5048549;28;19923;-72
2021/08/13 08:46:53;;;;;;;13.18;8.32;;;;;;;25.00;58.30;101561.09;5047992;28;20036;-72
2021/08/13 08:49:20;;;;;;;11.10;9.07;;;;;;;25.58;55.88;101571.09;5047711;28;20021;-72
2021/08/13 08:51:47;;;;;;;13.73;8.68;;;;;;;25.86;55.82;101559.38;5046793;28;20033;-72
2021/08/13 08:54:12;;;;;;;13.20;9.07;;;;;;;25.38;57.22;101552.41;5046433;28;20029;-72
2021/08/13 08:56:38;;;;;;;9.73;7.63;;;;;;;26.04;55.95;101550.13;5046682;28;20106;-72
2021/08/13 08:59:04;;;;;;;14.63;9.68;;;;;;;26.09;53.58;101544.75;5045880;28;20126;-72
2021/08/13 09:01:30;;;;;;;15.60;9.90;;;;;;;25.99;53.79;101541.84;5046549;28;20037;-72
2021/08/13 09:03:55;;;;;;;14.27;8.75;;;;;;;26.24;53.97;101535.13;5046454;28;20016;-72
2021/08/13 09:06:22;;;;;;;10.43;8.25;;;;;;;26.40;53.85;101537.03;5046750;28;20477;-72
2021/08/13 09:08:47;;;;;;;12.88;10.07;;;;;;;26.27;52.73;101540.09;5047967;28;20032;-72
2021/08/13 09:11:14;;;;;;;12.77;9.27;;;;;;;26.08;53.34;101534.88;5047746;28;20080;-72
2021/08/13 09:13:39;;;;;;;10.82;7.35;;;;;;;26.57;53.36;101544.44;5047817;28;20024;-72
2021/08/13 09:16:15;;;;;;;10.93;8.03;;;;;;;26.51;54.47;101535.31;5047625;28;20052;-72
2021/08/13 09:18:42;;;;;;;;;;;;;;;27.04;55.51;101542.13;5047266;28;20843;-72
2021/08/13 09:21:09;;;;;;;9.93;8.15;;;;;;;26.41;53.67;101538.72;5047248;28;19956;-72
2021/08/13 09:23:39;;;;;;;11.23;9.05;;;;;;;25.45;57.06;101539.41;5046887;28;20135;-72
2021/08/13 09:26:10;;;;;;;10.77;8.55;;;;;;;25.51;55.93;101537.59;5047375;28;20203;-72
2021/08/13 09:28:55;;;;;;;9.38;7.53;;;;;;;25.67;56.62;101542.28;5047016;28;20485;-72
2021/08/13 09:31:40;;;;;;;17.08;8.48;;;;;;;24.99;57.82;101540.31;5046515;28;20041;-72
2021/08/13 09:34:09;;;;;;;9.10;6.47;;;;;;;25.15;58.50;101553.25;5046469;28;20029;-72
2021/08/13 09:36:41;;;;;;;11.65;8.10;;;;;;;26.27;54.62;101556.50;5046425;28;20053;-72
2021/08/13 09:39:09;;;;;;;11.52;7.38;;;;;;;26.16;54.53;101543.75;5047621;28;20049;-71
2021/08/13 09:41:48;;;;;;;11.43;8.02;;;;;;;26.27;54.50;101560.09;5047160;28;20556;-72
2021/08/13 09:44:27;;;;;;;10.40;7.35;;;;;;;26.48;53.79;101550.31;5049472;28;20039;-72
2021/08/13 09:46:55;;;;;;;10.73;6.75;;;;;;;27.08;53.32;101562.44;5049488;28;20477;-72
2021/08/13 09:49:21;;;;;;;10.00;7.15;;;;;;;26.84;52.40;101556.38;5049301;28;20035;-72
2021/08/13 09:51:46;;;;;;;11.00;7.20;;;;;;;26.94;52.46;101553.75;5033019;28;20032;-71
2021/08/13 09:54:11;;;;;;;9.10;7.47;;;;;;;26.67;53.17;101563.78;5032721;28;20611;-72
2021/08/13 09:56:39;;;;;;;9.82;7.72;;;;;;;26.13;53.76;101566.13;5032936;28;20037;-72
2021/08/13 09:59:20;;;;;;;11.05;8.27;;;;;;;25.88;54.63;101559.94;5067281;28;20658;-72
2021/08/13 10:01:48;;;;;;;9.88;7.63;;;;;;;26.02;54.89;101555.00;5032999;28;20167;-72
2021/08/13 10:04:15;;;;;;;9.88;7.00;;;;;;;25.70;55.72;101557.38;5066606;28;20062;-71
2021/08/13 10:06:42;;;;;;;13.20;8.43;;;;;;;25.61;54.49;101551.47;5049359;28;20606;-72
2021/08/13 10:09:27;;;;;;;12.18;8.35;;;;;;;25.55;56.34;101552.47;5049268;28;20017;-72
2021/08/13 10:12:04;;;;;;;13.95;8.10;;;;;;;26.29;54.81;101557.09;5049519;28;20036;-71
2021/08/13 10:14:40;;;;;;;8.75;7.68;;;;;;;25.15;57.18;101555.97;5049201;28;20048;-72
2021/08/13 10:17:13;;;;;;;9.45;6.97;;;;;;;25.92;56.61;101560.31;5048981;28;20484;-72
2021/08/13 10:19:48;;;;;;;9.13;7.20;;;;;;;26.49;54.98;101560.19;5048846;28;20091;-71
2021/08/13 10:22:18;;;;;;;11.18;7.80;;;;;;;26.06;54.89;101561.66;5050277;28;20115;-72
2021/08/13 10:24:44;;;;;;;9.73;7.05;;;;;;;25.77;55.01;101557.25;5052924;28;20330;-73
2021/08/13 10:27:11;;;;;;;10.07;7.28;;;;;;;25.47;56.95;101563.75;5052884;28;20040;-73
2021/08/13 10:29:37;;;;;;;9.88;7.75;;;;;;;25.55;56.41;101555.19;5052990;28;20025;-73
2021/08/13 10:32:04;;;;;;;9.35;7.50;;;;;;;26.26;54.96;101566.63;5053089;28;20533;-73
2021/08/13 10:34:30;;;;;;;14.75;6.93;;;;;;;26.26;54.67;101560.34;5052842;28;20028;-73
2021/08/13 10:36:56;;;;;;;11.20;7.57;;;;;;;26.20;54.81;101550.38;5036166;28;20418;-73
2021/08/13 10:39:23;;;;;;;;;;;;;;;26.20;55.14;101550.38;5053346;28;20123;-73
2021/08/13 10:41:53;;;;;;;12.02;7.45;;;;;;;26.27;54.76;101545.56;5052626;28;20253;-73
2021/08/13 10:44:28;;;;;;;10.00;7.95;;;;;;;26.06;55.70;101542.50;5036644;28;20036;-73
2021/08/13 10:46:57;;;;;;;8.65;7.45;;;;;;;26.77;53.10;101543.94;5052774;28;20120;-73
2021/08/13 10:49:25;;;;;;;10.00;7.07;;;;;;;26.45;53.09;101553.53;5036161;28;20413;-73
2021/08/13 10:52:03;;;;;;;11.13;8.23;;;;;;;26.18;54.41;101527.94;5052689;28;20159;-72
2021/08/13 10:54:59;;;;;;;10.85;8.25;;;;;;;25.73;56.41;101528.72;5035856;28;20119;-73
2021/08/13 10:57:55;;;;;;;9.77;7.53;;;;;;;25.83;55.59;101531.66;5023025;28;20047;-73
2021/08/13 11:00:22;;;;;;;11.85;7.47;;;;;;;26.30;54.84;101534.16;5033052;28;20425;-73
2021/08/13 11:03:15;;;;;;;9.77;8.18;;;;;;;25.87;54.87;101541.91;5035949;28;20020;-73
2021/08/13 11:05:53;;;;;;;10.80;6.60;;;;;;;26.46;53.56;101532.50;5052003;28;20040;-73
2021/08/13 11:08:21;;;;;;;10.10;7.25;;;;;;;26.41;52.48;101535.13;5052406;28;20032;-73
2021/08/13 11:10:54;;;;;;;8.68;6.95;;;;;;;26.30;52.37;101523.19;5036524;28;20032;-73
2021/08/13 11:13:21;;;;;;;9.10;7.20;;;;;;;26.22;52.80;101516.25;5052404;28;20033;-72
2021/08/13 11:15:52;;;;;;;7.97;6.60;;;;;;;26.25;54.37;101520.38;5035955;28;20032;-73
2021/08/13 11:18:28;;;;;;;;;;;;;;;26.32;52.24;101510.09;5069241;28;20060;-73